Terminal Aerodrome Forecast
Issued by NWS

Home | Current Version | Previous Version | Text Only | Print | Product List | Glossary On
Versions: 1 2 3 4 5 6 7 8 9 10 11 12 13 14 15 16 17 18 19 20 21 22 23 24 25
000
FTUS41 KRNK 291333 AAC
TAFBCB
TAF AMD
KBCB 291333Z 2914/3012 VRB03KT P6SM BKN025
      TEMPO 2914/2918 SCT025
     FM300200 00000KT P6SM SCT025
     FM300400 VRB03KT P6SM BKN025
     FM301100 11005KT P6SM BKN008=

USA.gov is the U.S. government's official web portal to all federal, state and local government web resources and services.